createdAt,value
2018-11-26T00:00:35.303Z,39.73
2018-11-26T00:02:44.530Z,41.20
2018-11-26T00:04:53.572Z,39.60
2018-11-26T00:07:02.723Z,41.27
2018-11-26T00:09:12.021Z,40.98
2018-11-26T00:11:32.312Z,40.30
2018-11-26T00:13:41.337Z,37.40
2018-11-26T00:15:50.634Z,44.57
2018-11-26T00:17:59.845Z,40.67
2018-11-26T00:20:08.986Z,38.47
2018-11-26T00:22:18.080Z,44.10
2018-11-26T00:24:27.171Z,36.48
2018-11-26T00:26:36.305Z,44.10
2018-11-26T00:28:46.395Z,40.20
2018-11-26T00:30:54.639Z,38.80
2018-11-26T00:33:03.731Z,42.78
2018-11-26T00:35:12.862Z,42.48
2018-11-26T00:37:21.955Z,42.17
2018-11-26T00:39:31.163Z,39.30
2018-11-26T00:41:40.618Z,42.17
2018-11-26T00:43:49.786Z,42.70
2018-11-26T00:45:58.898Z,46.40
2018-11-26T00:48:08.089Z,44.05
2018-11-26T00:50:17.224Z,42.23
2018-11-26T00:52:26.457Z,42.53
2018-11-26T00:54:35.601Z,42.97
2018-11-26T00:56:44.599Z,42.07
2018-11-26T00:58:53.797Z,41.20
2018-11-26T01:01:03.083Z,45.00
2018-11-26T01:03:12.322Z,42.83
2018-11-26T01:05:31.793Z,45.70
2018-11-26T01:07:40.900Z,44.05
2018-11-26T01:09:50.006Z,43.83
2018-11-26T01:11:59.110Z,40.15
2018-11-26T01:14:08.221Z,39.90
2018-11-26T01:16:17.271Z,38.33
2018-11-26T01:18:26.933Z,37.33
2018-11-26T01:20:36.097Z,34.70
2018-11-26T01:22:45.129Z,31.90
2018-11-26T01:24:54.273Z,32.87
2018-11-26T01:27:09.141Z,35.60
2018-11-26T01:29:16.135Z,35.97
2018-11-26T01:31:25.460Z,34.77
2018-11-26T01:33:34.635Z,33.37
2018-11-26T01:35:43.726Z,33.80
2018-11-26T01:37:52.803Z,30.80
2018-11-26T01:40:02.309Z,31.73
2018-11-26T01:42:08.272Z,31.20
2018-11-26T01:44:16.001Z,34.92
2018-11-26T01:46:25.150Z,35.50
2018-11-26T01:48:34.347Z,33.92
2018-11-26T01:50:43.474Z,34.13
2018-11-26T01:52:53.311Z,32.67
2018-11-26T01:55:02.367Z,32.23
2018-11-26T01:57:05.984Z,33.40
2018-11-26T01:59:11.759Z,33.30
2018-11-26T02:01:21.382Z,32.03
2018-11-26T02:03:30.645Z,31.90
2018-11-26T02:05:39.701Z,32.10
2018-11-26T02:07:46.301Z,29.70
2018-11-26T02:09:49.898Z,32.55
2018-11-26T02:11:53.279Z,33.05
2018-11-26T02:14:02.576Z,32.42
2018-11-26T02:16:10.853Z,32.40
2018-11-26T02:18:20.986Z,34.80
2018-11-26T02:20:24.394Z,32.30
2018-11-26T02:22:27.470Z,33.63
2018-11-26T02:24:31.153Z,36.15
2018-11-26T02:26:34.202Z,37.13
2018-11-26T02:28:43.387Z,32.48
2018-11-26T02:30:48.199Z,34.53
2018-11-26T02:32:51.779Z,37.60
2018-11-26T02:34:55.121Z,34.80
2018-11-26T02:36:59.067Z,36.28
2018-11-26T02:39:02.257Z,39.55
2018-11-26T02:41:05.621Z,36.55
2018-11-26T02:43:08.947Z,39.98
2018-11-26T02:45:12.126Z,38.60
2018-11-26T02:47:15.531Z,40.67
2018-11-26T02:49:19.031Z,41.45
2018-11-26T02:51:22.515Z,37.70
2018-11-26T02:53:25.859Z,39.00
2018-11-26T02:55:29.038Z,37.75
2018-11-26T02:57:36.192Z,38.17
2018-11-26T02:59:39.849Z,38.20
2018-11-26T03:01:43.576Z,38.10
2018-11-26T03:03:51.718Z,37.38
2018-11-26T03:05:55.057Z,41.35
2018-11-26T03:07:58.570Z,37.95
2018-11-26T03:10:09.379Z,37.75
2018-11-26T03:12:12.726Z,39.67
2018-11-26T03:14:16.208Z,39.53
2018-11-26T03:16:20.126Z,39.33
2018-11-26T03:18:23.368Z,39.42
2018-11-26T03:20:26.876Z,35.95
2018-11-26T03:22:30.035Z,36.33
2018-11-26T03:24:33.869Z,36.38
2018-11-26T03:26:43.037Z,38.02
2018-11-26T03:28:47.436Z,36.20
2018-11-26T03:30:51.579Z,38.08
2018-11-26T03:32:54.739Z,35.50
2018-11-26T03:34:58.090Z,34.90
2018-11-26T03:37:01.241Z,35.55
2018-11-26T03:39:06.345Z,36.40
2018-11-26T03:41:09.919Z,35.92
2018-11-26T03:43:13.485Z,38.83
2018-11-26T03:45:17.618Z,36.63
2018-11-26T03:47:20.856Z,33.35
2018-11-26T03:49:24.253Z,35.48
2018-11-26T03:51:27.702Z,34.98
2018-11-26T03:53:30.762Z,35.65
2018-11-26T03:55:33.806Z,32.80
2018-11-26T03:57:37.321Z,32.03
2018-11-26T03:59:40.435Z,33.65
2018-11-26T04:01:43.433Z,34.70
2018-11-26T04:03:47.956Z,34.58
2018-11-26T04:05:51.098Z,33.35
2018-11-26T04:07:54.519Z,34.58
2018-11-26T04:09:58.068Z,36.15
2018-11-26T04:12:07.449Z,35.28
2018-11-26T04:14:16.531Z,35.05
2018-11-26T04:16:20.292Z,35.45
2018-11-26T04:18:24.203Z,38.10
2018-11-26T04:20:27.632Z,35.30
2018-11-26T04:22:34.685Z,35.30
2018-11-26T04:24:38.164Z,33.80
2018-11-26T04:26:41.659Z,31.60
2018-11-26T04:28:45.055Z,37.55
2018-11-26T04:30:48.223Z,35.98
2018-11-26T04:32:51.569Z,37.28
2018-11-26T04:34:54.876Z,34.00
2018-11-26T04:36:58.839Z,36.80
2018-11-26T04:39:02.153Z,36.30
2018-11-26T04:41:06.328Z,33.35
2018-11-26T04:43:09.804Z,34.98
2018-11-26T04:45:13.388Z,35.70
2018-11-26T04:47:16.636Z,34.15
2018-11-26T04:49:20.443Z,31.82
2018-11-26T04:51:23.515Z,32.88
2018-11-26T04:53:26.573Z,33.95
2018-11-26T04:55:29.687Z,33.53
2018-11-26T04:57:34.149Z,35.70
2018-11-26T04:59:36.082Z,35.05
2018-11-26T05:01:39.318Z,33.40
2018-11-26T05:03:42.787Z,35.60
2018-11-26T05:05:51.951Z,35.17
2018-11-26T05:08:00.965Z,33.65
2018-11-26T05:10:13.044Z,34.80
2018-11-26T05:12:22.229Z,32.95
2018-11-26T05:14:25.605Z,32.95
2018-11-26T05:16:29.234Z,32.93
2018-11-26T05:18:32.764Z,32.15
2018-11-26T05:20:35.900Z,31.70
2018-11-26T05:22:39.471Z,28.83
2018-11-26T05:24:42.970Z,32.10
2018-11-26T05:26:46.379Z,32.60
2018-11-26T05:28:49.727Z,30.82
2018-11-26T05:30:56.203Z,27.02
2018-11-26T05:32:59.818Z,28.17
2018-11-26T05:35:03.363Z,26.52
2018-11-26T05:37:07.119Z,30.17
2018-11-26T05:39:16.211Z,28.45
2018-11-26T05:41:25.384Z,28.05
2018-11-26T05:43:34.585Z,30.23
2018-11-26T05:45:43.595Z,29.10
2018-11-26T05:47:52.794Z,30.57
2018-11-26T05:50:02.149Z,29.57
2018-11-26T05:52:05.871Z,28.52
2018-11-26T05:54:09.005Z,28.80
2018-11-26T05:56:12.829Z,29.57
2018-11-26T05:58:16.415Z,31.93
2018-11-26T06:00:24.851Z,27.80
2018-11-26T06:02:27.883Z,31.33
2018-11-26T06:04:31.069Z,28.83
2018-11-26T06:06:34.806Z,29.27
2018-11-26T06:08:38.343Z,29.40
2018-11-26T06:10:47.572Z,26.02
2018-11-26T06:12:51.127Z,28.70
2018-11-26T06:14:54.671Z,27.70
2018-11-26T06:16:58.218Z,28.70
2018-11-26T06:19:01.724Z,29.42
2018-11-26T06:21:10.851Z,42.60
2018-11-26T06:23:13.934Z,35.13
2018-11-26T06:25:19.654Z,28.65
2018-11-26T06:27:22.947Z,30.27
2018-11-26T06:29:32.228Z,28.45
2018-11-26T06:31:35.455Z,27.58
2018-11-26T06:33:38.474Z,30.10
2018-11-26T06:35:41.920Z,29.63
2018-11-26T06:37:46.151Z,29.32
2018-11-26T06:39:49.952Z,28.90
2018-11-26T06:41:54.192Z,27.93
2018-11-26T06:43:57.778Z,28.42
2018-11-26T06:46:01.251Z,28.07
2018-11-26T06:48:04.965Z,31.73
2018-11-26T06:50:10.592Z,28.55
2018-11-26T06:52:14.052Z,29.82
2018-11-26T06:54:17.632Z,31.10
2018-11-26T06:56:21.158Z,35.25
2018-11-26T06:58:24.592Z,28.32
2018-11-26T07:00:29.906Z,29.45
2018-11-26T07:02:33.011Z,31.62
2018-11-26T07:04:36.120Z,31.12
2018-11-26T07:06:45.211Z,32.30
2018-11-26T07:08:54.449Z,31.80
2018-11-26T07:11:03.497Z,27.25
2018-11-26T07:13:12.655Z,28.90
2018-11-26T07:15:18.232Z,29.15
2018-11-26T07:17:22.080Z,28.40
2018-11-26T07:19:25.224Z,29.37
2018-11-26T07:21:28.239Z,33.10
2018-11-26T07:23:31.380Z,31.05
2018-11-26T07:25:34.609Z,30.17
2018-11-26T07:27:37.793Z,28.40
2018-11-26T07:29:40.777Z,28.75
2018-11-26T07:31:44.192Z,29.02
2018-11-26T07:33:47.180Z,27.30
2018-11-26T07:35:50.113Z,28.67
2018-11-26T07:37:53.068Z,29.37
2018-11-26T07:39:56.017Z,30.02
2018-11-26T07:41:58.909Z,30.50
2018-11-26T07:44:01.819Z,30.50
2018-11-26T07:46:05.409Z,28.20
2018-11-26T07:48:10.105Z,30.97
2018-11-26T07:50:15.594Z,28.87
2018-11-26T07:52:18.977Z,28.07
2018-11-26T07:54:22.233Z,30.57
2018-11-26T07:56:25.394Z,28.38
2018-11-26T07:58:28.667Z,31.97
2018-11-26T08:00:31.673Z,31.68
2018-11-26T08:02:34.651Z,27.85
2018-11-26T08:04:38.003Z,29.65
2018-11-26T08:06:41.002Z,30.65
2018-11-26T08:08:43.996Z,27.90
2018-11-26T08:10:47.377Z,28.55
2018-11-26T08:12:51.991Z,30.72
2018-11-26T08:14:54.989Z,31.68
2018-11-26T08:16:58.273Z,29.60
2018-11-26T08:19:01.279Z,30.55
2018-11-26T08:21:04.406Z,29.65
2018-11-26T08:23:07.472Z,30.90
2018-11-26T08:25:12.051Z,30.88
2018-11-26T08:27:15.050Z,32.03
2018-11-26T08:29:18.104Z,31.12
2018-11-26T08:31:21.084Z,29.75
2018-11-26T08:33:24.068Z,27.22
2018-11-26T08:35:27.287Z,28.52
2018-11-26T08:37:33.742Z,28.62
2018-11-26T08:39:42.444Z,27.80
2018-11-26T08:41:51.934Z,31.48
2018-11-26T08:43:57.248Z,28.75
2018-11-26T08:46:04.778Z,31.48
2018-11-26T08:48:13.374Z,31.25
2018-11-26T08:50:16.393Z,33.48
2018-11-26T08:52:19.900Z,34.65
2018-11-26T08:54:22.866Z,31.97
2018-11-26T08:56:25.786Z,33.48
2018-11-26T08:58:28.704Z,30.15
2018-11-26T09:00:31.683Z,34.05
2018-11-26T09:02:41.856Z,33.42
2018-11-26T09:04:46.795Z,34.10
2018-11-26T09:06:49.787Z,36.25
2018-11-26T09:08:52.708Z,31.48
2018-11-26T09:10:55.680Z,32.42
2018-11-26T09:12:58.686Z,31.82
2018-11-26T09:15:01.685Z,31.50
2018-11-26T09:17:04.770Z,33.67
2018-11-26T09:19:07.750Z,30.62
2018-11-26T09:21:11.068Z,29.55
2018-11-26T09:23:14.005Z,30.92
2018-11-26T09:25:17.002Z,32.03
2018-11-26T09:27:19.991Z,35.63
2018-11-26T09:29:22.991Z,32.45
2018-11-26T09:31:25.961Z,30.30
2018-11-26T09:33:28.981Z,31.87
2018-11-26T09:35:31.990Z,30.17
2018-11-26T09:37:34.957Z,31.62
2018-11-26T09:39:37.903Z,31.17
2018-11-26T09:41:40.858Z,31.23
2018-11-26T09:43:43.863Z,31.20
2018-11-26T09:45:46.806Z,31.25
2018-11-26T09:47:49.733Z,27.90
2018-11-26T09:49:52.949Z,26.75
2018-11-26T09:51:55.900Z,29.95
2018-11-26T09:53:58.880Z,30.90
2018-11-26T09:56:01.841Z,29.25
2018-11-26T09:58:05.251Z,31.35
2018-11-26T10:00:22.967Z,29.92
2018-11-26T10:02:25.948Z,29.18
2018-11-26T10:04:29.046Z,33.95
2018-11-26T10:06:32.006Z,30.30
2018-11-26T10:08:34.971Z,30.20
2018-11-26T10:10:37.913Z,31.33
2018-11-26T10:12:42.000Z,31.95
2018-11-26T10:14:44.967Z,31.07
2018-11-26T10:16:47.895Z,30.17
2018-11-26T10:18:50.821Z,30.72
2018-11-26T10:20:53.812Z,32.03
2018-11-26T10:22:56.808Z,29.95
2018-11-26T10:25:05.737Z,32.10
2018-11-26T10:27:02.735Z,30.85
2018-11-26T10:29:05.828Z,29.42
2018-11-26T10:31:08.872Z,29.65
2018-11-26T10:33:14.871Z,30.62
2018-11-26T10:35:16.712Z,31.15
2018-11-26T10:37:19.671Z,29.32
2018-11-26T10:39:22.600Z,29.95
2018-11-26T10:41:25.583Z,29.15
2018-11-26T10:43:28.555Z,31.12
2018-11-26T10:45:31.501Z,29.90
2018-11-26T10:47:34.471Z,28.80
2018-11-26T10:49:37.445Z,28.25
2018-11-26T10:51:40.369Z,28.20
2018-11-26T10:53:43.306Z,29.07
2018-11-26T10:55:46.267Z,27.85
2018-11-26T10:57:49.234Z,27.60
2018-11-26T10:59:52.223Z,29.18
2018-11-26T11:02:01.127Z,31.45
2018-11-26T11:04:04.493Z,29.27
2018-11-26T11:06:07.432Z,30.50
2018-11-26T11:08:10.347Z,30.30
2018-11-26T11:10:18.482Z,27.15
2018-11-26T11:12:21.386Z,27.70
2018-11-26T11:14:24.309Z,27.82
2018-11-26T11:16:27.296Z,29.70
2018-11-26T11:18:30.257Z,26.05
2018-11-26T11:20:33.563Z,26.77
2018-11-26T11:22:36.564Z,26.70
2018-11-26T11:24:39.514Z,26.68
2018-11-26T11:26:42.487Z,27.87
2018-11-26T11:28:45.445Z,24.27
2018-11-26T11:30:48.432Z,26.40
2018-11-26T11:32:51.447Z,27.85
2018-11-26T11:34:54.676Z,25.48
2018-11-26T11:36:57.628Z,24.92
2018-11-26T11:39:00.629Z,25.65
2018-11-26T11:41:03.635Z,25.10
2018-11-26T11:43:06.761Z,25.50
2018-11-26T11:45:11.349Z,24.80
2018-11-26T11:47:14.381Z,25.12
2018-11-26T11:49:17.518Z,26.40
2018-11-26T11:51:20.621Z,23.57
2018-11-26T11:53:23.588Z,26.07
2018-11-26T11:55:26.818Z,25.90
2018-11-26T11:57:29.849Z,23.60
2018-11-26T11:59:32.829Z,24.92
2018-11-26T12:01:35.833Z,23.05
2018-11-26T12:03:38.799Z,22.13
2018-11-26T12:05:41.748Z,25.40
2018-11-26T12:07:44.744Z,208.82
2018-11-26T12:09:47.787Z,71.67
2018-11-26T12:11:50.792Z,73.75
2018-11-26T12:13:53.881Z,125.07
2018-11-26T12:15:56.859Z,148.60
2018-11-26T12:17:59.929Z,94.58
2018-11-26T12:20:03.384Z,49.33
2018-11-26T12:22:06.395Z,33.60
2018-11-26T12:24:09.393Z,25.77
2018-11-26T12:26:12.388Z,25.90
2018-11-26T12:28:15.397Z,30.75
2018-11-26T12:30:24.144Z,28.20
2018-11-26T12:32:27.710Z,24.50
2018-11-26T12:34:30.690Z,22.87
2018-11-26T12:36:34.700Z,25.35
2018-11-26T12:38:37.675Z,25.75
2018-11-26T12:40:40.705Z,25.48
2018-11-26T12:42:43.670Z,24.17
2018-11-26T12:44:50.632Z,23.90
2018-11-26T12:46:53.943Z,25.40
2018-11-26T12:48:56.901Z,23.20
2018-11-26T12:50:59.924Z,23.83
2018-11-26T12:53:02.931Z,22.62
2018-11-26T12:55:10.378Z,22.97
2018-11-26T12:57:13.365Z,23.75
2018-11-26T12:59:16.736Z,24.18
2018-11-26T13:01:19.681Z,23.02
2018-11-26T13:03:22.625Z,23.10
2018-11-26T13:05:25.646Z,23.20
2018-11-26T13:07:28.875Z,21.97
2018-11-26T13:09:31.835Z,24.32
2018-11-26T13:11:35.089Z,24.25
2018-11-26T13:13:38.041Z,22.07
2018-11-26T13:15:40.991Z,23.87
2018-11-26T13:17:44.085Z,26.12
2018-11-26T13:19:47.051Z,24.10
2018-11-26T13:21:50.065Z,23.22
2018-11-26T13:23:53.048Z,24.65
2018-11-26T13:25:56.033Z,23.03
2018-11-26T13:28:00.839Z,26.35
2018-11-26T13:30:11.257Z,24.18
2018-11-26T13:32:14.206Z,24.18
2018-11-26T13:34:17.278Z,24.15
2018-11-26T13:36:20.311Z,25.10
2018-11-26T13:38:29.638Z,25.10
2018-11-26T13:40:38.771Z,24.72
2018-11-26T13:42:48.171Z,23.60
2018-11-26T13:44:57.383Z,25.12
2018-11-26T13:47:07.402Z,24.47
2018-11-26T13:49:16.327Z,23.75
2018-11-26T13:51:25.462Z,23.83
2018-11-26T13:53:34.391Z,24.55
2018-11-26T13:55:43.410Z,24.30
2018-11-26T13:57:52.572Z,24.72
2018-11-26T14:00:01.692Z,24.20
2018-11-26T14:02:11.102Z,22.90
2018-11-26T14:04:20.231Z,25.88
2018-11-26T14:06:29.214Z,27.95
2018-11-26T14:08:38.166Z,35.08
2018-11-26T14:10:47.313Z,30.80
2018-11-26T14:13:07.786Z,27.40
2018-11-26T14:15:16.826Z,21.57
2018-11-26T14:17:25.882Z,35.83
2018-11-26T14:19:35.995Z,26.60
2018-11-26T14:21:45.098Z,44.25
2018-11-26T14:23:54.074Z,39.13
2018-11-26T14:26:02.993Z,27.37
2018-11-26T14:28:12.057Z,29.27
2018-11-26T14:30:24.262Z,34.08
2018-11-26T14:32:33.197Z,25.68
2018-11-26T14:34:42.094Z,24.43
2018-11-26T14:36:51.162Z,22.85
2018-11-26T14:39:00.400Z,23.83
2018-11-26T14:41:09.548Z,22.22
2018-11-26T14:43:19.681Z,27.40
2018-11-26T14:45:28.814Z,21.52
2018-11-26T14:47:38.042Z,25.72
2018-11-26T14:49:47.194Z,27.93
2018-11-26T14:51:56.299Z,29.40
2018-11-26T14:54:08.533Z,31.02
2018-11-26T14:56:18.475Z,32.78
2018-11-26T14:58:27.551Z,28.65
2018-11-26T15:00:39.626Z,29.80
2018-11-26T15:02:48.777Z,28.00
2018-11-26T15:04:57.879Z,26.75
2018-11-26T15:07:07.035Z,28.07
2018-11-26T15:09:16.108Z,25.88
2018-11-26T15:11:25.192Z,24.52
2018-11-26T15:13:34.315Z,22.70
2018-11-26T15:15:43.494Z,28.67
2018-11-26T15:17:52.573Z,27.35
2018-11-26T15:20:01.618Z,25.88
2018-11-26T15:22:12.623Z,24.32
2018-11-26T15:24:22.942Z,22.80
2018-11-26T15:26:32.139Z,23.42
2018-11-26T15:28:41.114Z,24.65
2018-11-26T15:30:50.047Z,24.32
2018-11-26T15:32:59.086Z,24.05
2018-11-26T15:35:12.921Z,25.40
2018-11-26T15:37:22.987Z,24.47
2018-11-26T15:39:32.143Z,23.20
2018-11-26T15:41:41.292Z,25.12
2018-11-26T15:43:50.391Z,24.10
2018-11-26T15:45:59.405Z,23.07
2018-11-26T15:48:11.519Z,24.90
2018-11-26T15:50:20.880Z,24.57
2018-11-26T15:52:29.530Z,24.05
2018-11-26T15:54:38.646Z,24.45
2018-11-26T15:56:47.606Z,23.38
2018-11-26T15:58:59.750Z,23.35
2018-11-26T16:01:08.977Z,24.52
2018-11-26T16:03:21.692Z,24.07
2018-11-26T16:05:31.670Z,24.20
2018-11-26T16:07:41.475Z,27.17
2018-11-26T16:09:50.475Z,24.00
2018-11-26T16:11:59.514Z,25.40
2018-11-26T16:14:08.646Z,21.10
2018-11-26T16:16:17.670Z,24.35
2018-11-26T16:18:27.764Z,23.52
2018-11-26T16:20:36.881Z,23.57
2018-11-26T16:22:45.933Z,21.95
2018-11-26T16:24:54.893Z,20.97
2018-11-26T16:27:04.117Z,22.05
2018-11-26T16:29:13.327Z,25.00
2018-11-26T16:31:22.486Z,23.05
2018-11-26T16:33:31.349Z,24.72
2018-11-26T16:35:40.422Z,19.40
2018-11-26T16:37:49.406Z,22.55
2018-11-26T16:39:59.567Z,23.30
2018-11-26T16:42:08.658Z,22.52
2018-11-26T16:44:17.848Z,23.38
2018-11-26T16:46:26.922Z,23.02
2018-11-26T16:48:36.043Z,22.05
2018-11-26T16:50:44.967Z,22.15
2018-11-26T16:52:55.115Z,22.93
2018-11-26T16:55:07.422Z,19.85
2018-11-26T16:57:16.399Z,20.75
2018-11-26T16:59:25.558Z,22.42
2018-11-26T17:01:34.815Z,22.02
2018-11-26T17:03:43.911Z,22.75
2018-11-26T17:05:53.070Z,24.02
2018-11-26T17:08:02.065Z,23.07
2018-11-26T17:10:11.398Z,23.12
2018-11-26T17:12:20.371Z,23.20
2018-11-26T17:14:29.446Z,23.92
2018-11-26T17:16:38.602Z,23.05
2018-11-26T17:18:47.952Z,21.93
2018-11-26T17:20:56.867Z,23.25
2018-11-26T17:23:06.855Z,23.05
2018-11-26T17:25:16.690Z,22.37
2018-11-26T17:27:25.861Z,21.42
2018-11-26T17:29:34.810Z,23.98
2018-11-26T17:31:43.940Z,22.98
2018-11-26T17:33:52.998Z,23.67
2018-11-26T17:36:01.973Z,24.18
2018-11-26T17:38:11.090Z,24.10
2018-11-26T17:40:23.371Z,22.60
2018-11-26T17:42:32.415Z,23.87
2018-11-26T17:44:41.307Z,23.85
2018-11-26T17:46:50.326Z,23.20
2018-11-26T17:48:59.436Z,24.60
2018-11-26T17:51:08.602Z,26.12
2018-11-26T17:53:19.458Z,25.48
2018-11-26T17:55:28.536Z,25.27
2018-11-26T17:57:37.734Z,25.20
2018-11-26T17:59:46.761Z,24.95
2018-11-26T18:01:55.814Z,24.92
2018-11-26T18:04:05.666Z,23.55
2018-11-26T18:06:14.687Z,23.35
2018-11-26T18:08:23.733Z,22.50
2018-11-26T18:10:32.903Z,22.98
2018-11-26T18:12:42.001Z,20.95
2018-11-26T18:14:52.205Z,21.20
2018-11-26T18:17:01.234Z,21.95
2018-11-26T18:19:10.319Z,22.55
2018-11-26T18:21:20.534Z,20.37
2018-11-26T18:23:29.494Z,22.30
2018-11-26T18:25:38.607Z,19.40
2018-11-26T18:28:12.151Z,20.08
2018-11-26T18:30:26.034Z,19.73
2018-11-26T18:32:35.110Z,18.82
2018-11-26T18:34:44.254Z,19.73
2018-11-26T18:36:57.488Z,18.90
2018-11-26T18:39:28.115Z,20.68
2018-11-26T18:41:38.191Z,19.87
2018-11-26T18:43:48.359Z,18.25
2018-11-26T18:45:57.338Z,18.25
2018-11-26T18:48:07.522Z,19.92
2018-11-26T18:50:19.126Z,20.45
2018-11-26T18:52:28.095Z,18.82
2018-11-26T18:54:43.969Z,20.57
2018-11-26T18:56:53.041Z,19.32
2018-11-26T18:59:02.106Z,18.60
2018-11-26T19:01:11.075Z,21.68
2018-11-26T19:03:21.106Z,22.20
2018-11-26T19:05:34.666Z,19.17
2018-11-26T19:07:43.609Z,19.65
2018-11-26T19:09:52.594Z,20.15
2018-11-26T19:12:04.097Z,20.15
2018-11-26T19:14:15.027Z,19.20
2018-11-26T19:16:30.741Z,21.80
2018-11-26T19:18:53.343Z,20.48
2018-11-26T19:21:02.345Z,20.05
2018-11-26T19:23:11.719Z,20.52
2018-11-26T19:25:32.654Z,18.90
2018-11-26T19:27:49.375Z,20.27
2018-11-26T19:29:59.677Z,18.85
2018-11-26T19:32:08.700Z,21.30
2018-11-26T19:34:17.611Z,21.07
2018-11-26T19:36:34.815Z,20.37
2018-11-26T19:38:44.774Z,19.27
2018-11-26T19:40:50.470Z,21.62
2018-11-26T19:42:53.451Z,20.30
2018-11-26T19:44:58.403Z,20.00
2018-11-26T19:47:02.623Z,20.75
2018-11-26T19:49:05.707Z,22.17
2018-11-26T19:51:09.774Z,20.50
2018-11-26T19:53:15.083Z,20.68
2018-11-26T19:55:22.666Z,19.73
2018-11-26T19:57:25.615Z,22.73
2018-11-26T19:59:29.664Z,20.92
2018-11-26T20:01:32.658Z,20.97
2018-11-26T20:03:39.651Z,19.90
2018-11-26T20:06:00.650Z,21.05
2018-11-26T20:08:05.189Z,22.87
2018-11-26T20:10:08.957Z,20.92
2018-11-26T20:12:11.897Z,20.45
2018-11-26T20:14:21.305Z,22.10
2018-11-26T20:16:26.679Z,20.82
2018-11-26T20:18:29.795Z,21.30
2018-11-26T20:20:33.762Z,22.48
2018-11-26T20:22:36.730Z,23.07
2018-11-26T20:24:39.795Z,20.23
2018-11-26T20:26:42.688Z,22.85
2018-11-26T20:28:47.651Z,18.98
2018-11-26T20:30:51.123Z,21.00
2018-11-26T20:32:55.346Z,20.02
2018-11-26T20:34:59.283Z,21.80
2018-11-26T20:37:03.308Z,20.50
2018-11-26T20:39:09.006Z,20.27
2018-11-26T20:41:12.931Z,22.40
2018-11-26T20:43:19.538Z,20.50
2018-11-26T20:45:23.379Z,17.95
2018-11-26T20:47:27.539Z,22.80
2018-11-26T20:49:29.471Z,19.30
2018-11-26T20:51:34.963Z,21.13
2018-11-26T20:53:39.470Z,19.25
2018-11-26T20:55:42.370Z,19.02
2018-11-26T20:57:55.846Z,18.00
2018-11-26T21:00:15.714Z,18.70
2018-11-26T21:02:25.863Z,19.12
2018-11-26T21:04:34.907Z,19.37
2018-11-26T21:06:45.050Z,18.05
2018-11-26T21:08:55.259Z,18.73
2018-11-26T21:11:05.441Z,17.25
2018-11-26T21:13:16.945Z,18.95
2018-11-26T21:15:23.632Z,19.02
2018-11-26T21:17:32.717Z,19.67
2018-11-26T21:19:38.294Z,18.25
2018-11-26T21:21:42.699Z,17.90
2018-11-26T21:23:51.582Z,17.90
2018-11-26T21:25:57.936Z,20.27
2018-11-26T21:28:05.976Z,17.90
2018-11-26T21:30:16.734Z,18.95
2018-11-26T21:32:25.823Z,18.12
2018-11-26T21:34:35.038Z,17.12
2018-11-26T21:36:43.670Z,17.92
2018-11-26T21:38:51.767Z,17.77
2018-11-26T21:40:55.923Z,17.27
2018-11-26T21:43:00.238Z,15.60
2018-11-26T21:45:14.275Z,18.12
2018-11-26T21:47:17.452Z,16.75
2018-11-26T21:49:26.632Z,16.42
2018-11-26T21:51:35.839Z,17.82
2018-11-26T21:53:45.033Z,17.17
2018-11-26T21:55:48.242Z,17.65
2018-11-26T21:57:52.144Z,16.17
2018-11-26T21:59:55.887Z,16.90
2018-11-26T22:01:58.961Z,18.70
2018-11-26T22:04:05.483Z,15.50
2018-11-26T22:06:09.041Z,19.52
2018-11-26T22:08:18.540Z,17.10
2018-11-26T22:10:23.590Z,16.07
2018-11-26T22:12:27.116Z,16.25
2018-11-26T22:14:32.143Z,18.45
2018-11-26T22:16:41.178Z,17.37
2018-11-26T22:18:48.156Z,17.20
2018-11-26T22:20:53.554Z,15.80
2018-11-26T22:22:57.149Z,16.60
2018-11-26T22:25:00.427Z,15.68
2018-11-26T22:27:09.614Z,16.93
2018-11-26T22:29:12.891Z,15.78
2018-11-26T22:31:21.992Z,17.70
2018-11-26T22:33:31.110Z,15.93
2018-11-26T22:35:40.235Z,16.40
2018-11-26T22:37:49.318Z,16.77
2018-11-26T22:39:58.383Z,18.37
2018-11-26T22:42:07.719Z,16.75
2018-11-26T22:44:11.779Z,16.25
2018-11-26T22:46:16.007Z,15.83
2018-11-26T22:48:24.274Z,18.80
2018-11-26T22:50:33.571Z,18.37
2018-11-26T22:52:42.715Z,17.73
2018-11-26T22:54:51.727Z,16.65
2018-11-26T22:57:00.754Z,17.10
2018-11-26T22:59:09.907Z,19.15
2018-11-26T23:01:18.903Z,16.07
2018-11-26T23:03:24.993Z,18.30
2018-11-26T23:05:28.363Z,19.32
2018-11-26T23:07:31.320Z,16.60
2018-11-26T23:09:38.215Z,16.97
2018-11-26T23:11:41.563Z,19.02
2018-11-26T23:13:44.915Z,17.17
2018-11-26T23:15:48.289Z,18.50
2018-11-26T23:17:51.583Z,17.32
2018-11-26T23:19:54.876Z,17.85
2018-11-26T23:21:57.946Z,17.12
2018-11-26T23:24:01.362Z,19.65
2018-11-26T23:26:08.303Z,18.65
2018-11-26T23:28:11.784Z,18.30
2018-11-26T23:30:19.453Z,18.12
2018-11-26T23:32:22.783Z,19.45
2018-11-26T23:34:26.575Z,18.77
2018-11-26T23:36:34.306Z,17.92
2018-11-26T23:38:43.324Z,19.17
2018-11-26T23:40:52.458Z,20.97
2018-11-26T23:42:59.731Z,19.87
2018-11-26T23:45:13.640Z,18.02
2018-11-26T23:47:17.801Z,18.30
2018-11-26T23:49:26.563Z,17.92
2018-11-26T23:51:35.636Z,18.60
2018-11-26T23:53:38.734Z,19.00
2018-11-26T23:55:41.721Z,18.75
2018-11-26T23:57:45.077Z,19.65
2018-11-26T23:59:54.133Z,19.48
